EDT,Max TemperatureF,Mean TemperatureF,Min TemperatureF,Max Dew PointF,MeanDew PointF,Min DewpointF,Max Humidity, Mean Humidity, Min Humidity, Max Sea Level PressureIn, Mean Sea Level PressureIn, Min Sea Level PressureIn, Max VisibilityMiles, Mean VisibilityMiles, Min VisibilityMiles, Max Wind SpeedMPH, Mean Wind SpeedMPH, Max Gust SpeedMPH,PrecipitationIn, CloudCover, Events, WindDirDegrees
2013-3-1,44,40,36,29,26,23,67,57,45,29.89,29.85,29.82,10,10,10,10,5,17,0.00,8,,300
2013-3-2,47,38,28,27,22,16,74,54,37,29.90,29.86,29.80,10,10,10,13,5,20,0.00,8,,322
2013-3-3,41,34,28,19,15,11,56,47,33,29.96,29.91,29.87,10,10,10,16,9,26,0.00,6,,310
2013-3-4,56,42,28,18,4,-28,52,30,6,30.08,30.01,29.94,10,10,10,16,7,23,0.00,0,,305
2013-3-5,54,44,34,39,29,16,90,63,27,30.02,29.86,29.58,10,8,1,14,2,28,0.92,7,Rain,103
2013-3-6,44,38,33,38,27,20,90,63,49,30.07,29.81,29.58,10,10,3,29,11,40,0.06,7,Rain,310
2013-3-7,50,42,34,28,25,22,71,57,40,30.24,30.16,30.07,10,10,10,16,8,24,0.00,3,,328
2013-3-8,55,44,33,25,22,17,65,46,23,30.30,30.24,30.19,10,10,10,14,8,22,0.00,2,,328
2013-3-9,66,47,28,32,22,5,74,42,17,30.33,30.27,30.22,10,10,10,7,2,,0.00,0,,41
2013-3-10,67,49,32,38,28,20,79,45,23,30.28,30.22,30.17,10,10,10,12,2,16,0.00,0,,159
2013-3-11,62,52,43,52,37,17,84,55,29,30.18,30.03,29.86,10,10,10,16,4,22,0.01,6,Rain,148
2013-3-12,61,52,43,55,43,28,91,67,34,29.98,29.85,29.73,10,9,2,15,6,20,0.82,4,Rain,293
2013-3-13,51,42,33,31,21,12,63,45,24,30.14,30.03,29.97,10,10,10,16,7,25,0.00,4,Rain,290
2013-3-14,52,40,29,16,11,2,53,35,18,30.22,30.16,30.13,10,10,10,17,10,28,0.00,1,,301
2013-3-15,63,45,27,32,22,5,65,40,27,30.16,30.02,29.88,10,10,10,12,4,18,0.00,0,,238
2013-3-16,80,60,41,51,41,31,77,52,21,29.86,29.77,29.66,10,10,10,16,4,30,0.00,3,Rain,242
2013-3-17,56,47,38,50,43,35,89,82,74,30.15,29.99,29.86,10,9,4,17,5,26,0.00,7,Rain,62
2013-3-18,37,36,35,35,34,33,91,90,89,30.15,30.05,29.88,10,4,1,13,6,18,0.31,8,Rain-Snow,61
2013-3-19,62,48,34,40,19,-9,91,47,8,30.05,29.90,29.80,10,7,0,16,5,37,0.01,2,Fog,291
2013-3-20,59,46,32,22,3,-28,47,19,4,30.08,29.94,29.78,10,10,10,13,5,21,0.00,1,,271
2013-3-21,41,33,25,27,11,2,65,40,22,29.96,29.83,29.76,10,10,10,15,8,24,0.00,3,,314
2013-3-22,54,38,21,13,8,-1,60,34,13,30.03,29.97,29.92,10,10,10,8,3,,0.00,1,,282
2013-3-23,60,47,34,32,24,14,72,45,28,30.02,29.96,29.88,10,10,10,6,1,,0.00,6,,335
2013-3-24,43,38,33,37,33,30,92,84,70,29.91,29.72,29.54,10,7,2,13,4,21,0.79,7,Rain-Snow,61
2013-3-25,43,38,33,36,26,17,92,67,37,29.80,29.61,29.52,10,9,2,17,4,32,0.01,6,Snow,275
2013-3-26,47,40,34,27,24,22,66,54,41,30.12,29.94,29.79,10,10,10,18,9,28,0.00,5,,304
2013-3-27,48,39,29,26,21,11,74,49,30,30.22,30.18,30.11,10,10,10,14,6,23,0.00,5,,297
2013-3-28,55,42,28,24,18,10,70,42,25,30.27,30.22,30.19,10,10,10,14,3,22,0.00,1,,313
2013-3-29,62,44,26,34,18,4,78,41,11,30.32,30.24,30.15,10,10,10,8,1,18,0.00,2,,250
2013-3-30,66,50,33,37,23,10,71,36,17,30.23,30.14,30.06,10,10,7,10,3,,0.00,2,,63
2013-3-31,65,56,46,57,45,27,90,74,39,30.05,29.90,29.81,10,8,0,9,2,18,0.22,7,Fog-Rain,234